Погода METAR - Новосибирск (Толмачево)

Кемерово, Абакан, Красноярск, Новосибирск
Код METAR: UNNT 161500Z 05002MPS CAVOK 17/12 Q1011 R07/090070 R34/090070 NOSIG RMK QFE748/0998

Погода - Сейчас

Время: 2021-05-16 22:00, местное
Направление ветра: Северо-восток (50°)
Скорость ветра: 2 м/с
Видимость: более 10км, отсутствие осадков и облаков
Температура: 17°C
Точка росы: 12°C
Атмосферное давление: 1011 гПа

Архив погоды

Время, местное Направление Скорость, м/с Температура, °C Точка росы, °C Давление, гПа
2021-05-16 22:00 СВ (50°) 2 17 12 1011
2021-05-16 12:00 СЗ (310°) 3 20 12 1013
2021-05-15 16:00 ЮЗ (230°) 9 26 4 1017
2021-05-14 22:30 З (270°) 3 12 -2 1022
2021-05-14 19:30 ССЗ (330°) 5 17 -1 1021
2021-05-13 15:00 С (350°) 2 18 3 1013
2021-05-13 01:00 ЮЗ (210°) 2 9 -2 1014
2021-05-11 15:00 СВ (50°) 8 21 -4 1014
2021-05-11 14:30 СВ (50°) 8 21 -3 1014
2021-05-11 10:30 СВ (30°) 7 17 -1 1015
2021-05-11 07:30 ССВ (20°) 4 10 0 1016
2021-05-06 16:00 Ю (170°) 8 28 2 1003
2021-05-06 10:30 ЮВ (130°) 4 20 -2 1008
2021-05-05 21:30 Ю (180°) 3 16 1 1013
2021-05-05 17:30 ЮЗ (220°) 5 20 0 1015
2021-05-02 18:00 ЗЮЗ (260°) 6 14 -3 1028
2021-05-02 10:00 З (280°) 3 6 1 1030
2021-05-01 02:30 ЗЮЗ (240°) 3 7 -3 1012
2021-04-30 23:30 ЗЮЗ (240°) 4 9 -3 1012
2021-04-28 15:30 ЗЮЗ (260°) 13, порывы до 18 21 10 1000
2021-04-28 00:00 ЮЮВ (160°) 2 8 8 1013
2021-04-27 23:00 Штиль 0 8 8 1014
2021-04-27 12:30 ЮЗ (210°) 5 15 3 1018
2021-04-26 17:00 ЮЮВ (160°) 9 16 -5 1021
2021-04-26 05:00 ЮВ (130°) 1 2 -6 1026
2021-04-25 13:30 СЗ (300°) 3 12 -9 1029
2021-04-24 20:30 СЗ (300°) 3 7 -7 1031
2021-04-24 02:30 ССЗ (330°) 1 0 -8 1038
2021-04-23 14:30 ССВ (20°) 6 9 -10 1041
2021-04-22 10:00 ССВ (20°) 5 0 -6 1037
2021-04-22 04:30 С (10°) 3 -4 -5 1032
2021-04-20 14:30 ЗСЗ (290°) 4 -1 -13 1025
2021-04-19 10:00 СЗ (320°) 8, порывы до 13 -6 -11 1015
2021-04-18 09:30 ЮЗ (220°) 6 4 -6 1015
2021-04-13 09:00 СЗ (300°) 2 2 2 1030
2021-04-11 12:30 СЗ (300°) 3 7 -2 1041
2021-04-11 02:00 ССВ (20°) 1 0 -5 1039
2021-04-10 10:00 СЗ (310°) 1 4 -3 1035
2021-04-09 05:30 ССВ (20°) 1 0 1000
2021-04-07 21:00 ЮЗ (230°) 6 3 -3 1024
2021-04-07 10:00 ЮЗ (230°) 5 2 -3 1023
2021-04-07 04:00 ЮЗ (210°) 4 -1 -3 1023
2021-04-05 09:00 ЮВ (120°) 1 -2 -6 1017
2021-04-04 12:30 ЮВ (140°) 2 2 -5 1026
2021-04-04 07:00 ЮЮЗ (200°) 3 -4 -7 1026
2021-04-03 20:00 ЮЗ (220°) 6 3 -6 1026
2021-04-03 11:30 ЮЮЗ (200°) 5 2 -2 1024
2021-04-02 23:30 Ю (190°) 7 0 -3 1024